Time;durP1;ratioP1;P1;durP2;ratioP2;P2;SDS_P1;SDS_P2;PMS_P1;PMS_P2;Temp;Humidity;BMP_temperature;BMP_pressure;BME280_temperature;BME280_humidity;BME280_pressure;Samples;Min_cycle;Max_cycle;Signal;HPM_P1;HPM_P2
2023/06/28 00:01:38;;;;;;;;;8.00;8.00;;;;;;;;119705;1185;25571;-73
2023/06/28 00:04:07;;;;;;;;;9.33;8.33;;;;;;;;119690;1193;25390;-73
2023/06/28 00:06:35;;;;;;;;;8.33;8.33;;;;;;;;119689;1193;25381;-73
2023/06/28 00:09:03;;;;;;;;;9.00;9.00;;;;;;;;119941;1183;24839;-73
2023/06/28 00:11:31;;;;;;;;;7.75;7.75;;;;;;;;119503;1192;25545;-73
2023/06/28 00:14:00;;;;;;;;;11.00;9.00;;;;;;;;119846;1192;25414;-73
2023/06/28 00:16:28;;;;;;;;;8.00;8.00;;;;;;;;119864;1192;25133;-73
2023/06/28 00:19:00;;;;;;;;;9.50;8.50;;;;;;;;119875;1184;25040;-73
2023/06/28 00:21:28;;;;;;;;;8.00;8.00;;;;;;;;119891;1183;24953;-74
2023/06/28 00:23:57;;;;;;;;;12.00;10.00;;;;;;;;119858;1183;25664;-74
2023/06/28 00:26:26;;;;;;;;;14.33;11.00;;;;;;;;119847;1192;25231;-73
2023/06/28 00:28:54;;;;;;;;;11.00;8.50;;;;;;;;119879;1184;25431;-74
2023/06/28 00:31:23;;;;;;;;;10.67;9.33;;;;;;;;119887;1192;25690;-74
2023/06/28 00:33:51;;;;;;;;;13.00;9.00;;;;;;;;119878;1192;24780;-73
2023/06/28 00:36:19;;;;;;;;;12.00;8.00;;;;;;;;119856;1192;25569;-74
2023/06/28 00:38:47;;;;;;;;;9.75;9.75;;;;;;;;119894;1183;25217;-74
2023/06/28 00:41:16;;;;;;;;;8.50;8.50;;;;;;;;119881;1190;24937;-74
2023/06/28 00:43:44;;;;;;;;;4.67;3.67;;;;;;;;119877;1192;24859;-74
2023/06/28 00:46:12;;;;;;;;;9.50;9.50;;;;;;;;119871;1192;25054;-73
2023/06/28 00:48:41;;;;;;;;;8.67;8.00;;;;;;;;119891;1184;25748;-72
2023/06/28 00:51:09;;;;;;;;;8.00;8.00;;;;;;;;119867;1192;25239;-74
2023/06/28 00:53:38;;;;;;;;;8.00;8.00;;;;;;;;119485;1192;25006;-73
2023/06/28 00:56:07;;;;;;;;;8.67;8.33;;;;;;;;119513;1192;25091;-73
2023/06/28 00:58:36;;;;;;;;;13.00;12.00;;;;;;;;119493;1186;26532;-74
2023/06/28 01:01:04;;;;;;;;;9.33;8.00;;;;;;;;119457;1192;24996;-74
2023/06/28 01:03:32;;;;;;;;;7.25;7.25;;;;;;;;119871;1192;25509;-73
2023/06/28 01:06:01;;;;;;;;;9.00;9.00;;;;;;;;119868;1184;24928;-73
2023/06/28 01:08:30;;;;;;;;;10.33;10.00;;;;;;;;119519;1185;25448;-73
2023/06/28 01:10:58;;;;;;;;;13.67;8.33;;;;;;;;119526;1192;25673;-74
2023/06/28 01:13:27;;;;;;;;;7.50;7.50;;;;;;;;119482;1185;24757;-73
2023/06/28 01:15:55;;;;;;;;;9.50;9.00;;;;;;;;119497;1192;25292;-74
2023/06/28 01:18:24;;;;;;;;;8.67;7.67;;;;;;;;119473;1192;25583;-73
2023/06/28 01:20:55;;;;;;;;;11.00;9.00;;;;;;;;119857;1192;25084;-73
2023/06/28 01:23:27;;;;;;;;;11.25;9.75;;;;;;;;119891;1192;25040;-73
2023/06/28 01:25:55;;;;;;;;;14.00;9.50;;;;;;;;119496;1192;25530;-74
2023/06/28 01:28:24;;;;;;;;;11.00;10.00;;;;;;;;119505;1190;24857;-72
2023/06/28 01:30:53;;;;;;;;;13.00;11.00;;;;;;;;119451;1193;25663;-73
2023/06/28 01:33:21;;;;;;;;;10.50;9.00;;;;;;;;119489;1193;25540;-73
2023/06/28 01:35:50;;;;;;;;;12.00;9.50;;;;;;;;119692;1185;24749;-73
2023/06/28 01:38:19;;;;;;;;;8.00;8.00;;;;;;;;119680;1193;25552;-73
2023/06/28 01:40:49;;;;;;;;;10.50;8.50;;;;;;;;119456;1193;25090;-73
2023/06/28 01:43:18;;;;;;;;;8.67;8.67;;;;;;;;119467;1193;25237;-73
2023/06/28 01:45:46;;;;;;;;;11.33;10.00;;;;;;;;119468;1193;25580;-73
2023/06/28 01:48:15;;;;;;;;;9.00;9.00;;;;;;;;119860;1192;24793;-73
2023/06/28 01:50:43;;;;;;;;;11.00;9.50;;;;;;;;119867;1192;24839;-73
2023/06/28 01:53:12;;;;;;;;;11.75;11.75;;;;;;;;119475;1192;25150;-72
2023/06/28 01:55:40;;;;;;;;;9.00;9.00;;;;;;;;119712;1192;25630;-74
2023/06/28 01:58:08;;;;;;;;;10.67;9.00;;;;;;;;119897;1192;25419;-73
2023/06/28 02:00:36;;;;;;;;;10.67;9.33;;;;;;;;119874;1192;26045;-73
2023/06/28 02:03:05;;;;;;;;;9.00;8.00;;;;;;;;119862;1192;24801;-72
2023/06/28 02:05:33;;;;;;;;;10.00;9.00;;;;;;;;119897;1192;25141;-73
2023/06/28 02:08:02;;;;;;;;;6.67;6.00;;;;;;;;119861;1192;25420;-73
2023/06/28 02:10:30;;;;;;;;;9.00;9.00;;;;;;;;119881;1192;25511;-73
2023/06/28 02:12:58;;;;;;;;;10.00;9.00;;;;;;;;119884;1192;25312;-73
2023/06/28 02:15:27;;;;;;;;;8.33;8.33;;;;;;;;119509;1185;25573;-73
2023/06/28 02:17:56;;;;;;;;;8.00;8.00;;;;;;;;119905;1192;25111;-73
2023/06/28 02:20:24;;;;;;;;;10.50;9.50;;;;;;;;119877;1183;25665;-73
2023/06/28 02:22:53;;;;;;;;;10.00;8.67;;;;;;;;119499;1185;25225;-73
2023/06/28 02:25:21;;;;;;;;;6.00;6.00;;;;;;;;119885;1192;25602;-72
2023/06/28 02:27:49;;;;;;;;;9.67;9.00;;;;;;;;119875;1192;25177;-72
2023/06/28 02:30:18;;;;;;;;;11.00;11.00;;;;;;;;119883;1183;24770;-73
2023/06/28 02:32:46;;;;;;;;;9.00;8.50;;;;;;;;119881;1192;24961;-73
2023/06/28 02:35:18;;;;;;;;;7.67;7.67;;;;;;;;119856;1192;25318;-72
2023/06/28 02:37:46;;;;;;;;;7.00;6.00;;;;;;;;119836;1192;25425;-73
2023/06/28 02:40:15;;;;;;;;;7.50;6.50;;;;;;;;119692;1193;25620;-73
2023/06/28 02:42:43;;;;;;;;;9.00;7.67;;;;;;;;119678;1193;24975;-72
2023/06/28 02:45:11;;;;;;;;;9.00;7.67;;;;;;;;119672;1193;24888;-73
2023/06/28 02:47:39;;;;;;;;;7.00;6.00;;;;;;;;119469;1193;24937;-73
2023/06/28 02:50:08;;;;;;;;;11.50;9.00;;;;;;;;119685;1193;25090;-72
2023/06/28 02:52:36;;;;;;;;;8.00;7.00;;;;;;;;119679;1193;25352;-72
2023/06/28 02:55:07;;;;;;;;;8.25;6.00;;;;;;;;119826;1188;25674;-73
2023/06/28 02:57:37;;;;;;;;;9.00;7.50;;;;;;;;119900;1192;25733;-73
2023/06/28 03:00:06;;;;;;;;;7.50;7.50;;;;;;;;119881;1192;25633;-73
2023/06/28 03:02:34;;;;;;;;;8.00;8.00;;;;;;;;119875;1192;24835;-73
2023/06/28 03:05:03;;;;;;;;;7.67;6.00;;;;;;;;119857;1192;25221;-72
2023/06/28 03:07:31;;;;;;;;;7.50;5.75;;;;;;;;119876;1192;25067;-73
2023/06/28 03:10:00;;;;;;;;;8.50;7.00;;;;;;;;119857;1192;25133;-64
2023/06/28 03:12:29;;;;;;;;;5.00;5.00;;;;;;;;119680;1185;24772;-73
2023/06/28 03:14:57;;;;;;;;;5.67;4.67;;;;;;;;119677;1193;25697;-72
2023/06/28 03:17:29;;;;;;;;;6.33;6.33;;;;;;;;119464;1192;24936;-72
2023/06/28 03:19:57;;;;;;;;;7.00;6.00;;;;;;;;119713;1193;25153;-73
2023/06/28 03:22:25;;;;;;;;;4.50;4.00;;;;;;;;119717;1192;25574;-73
2023/06/28 03:24:54;;;;;;;;;6.00;4.00;;;;;;;;119673;1185;25154;-72
2023/06/28 03:27:23;;;;;;;;;7.00;6.50;;;;;;;;119702;1186;24982;-73
2023/06/28 03:29:51;;;;;;;;;8.00;8.00;;;;;;;;119702;1192;25659;-73
2023/06/28 03:32:19;;;;;;;;;9.00;6.67;;;;;;;;119703;1193;24751;-73
2023/06/28 03:34:48;;;;;;;;;8.00;7.00;;;;;;;;119693;1186;25585;-73
2023/06/28 03:37:17;;;;;;;;;5.00;5.00;;;;;;;;119679;1193;25452;-72
2023/06/28 03:39:45;;;;;;;;;7.00;6.00;;;;;;;;119688;1185;25390;-73
2023/06/28 03:42:13;;;;;;;;;4.50;4.50;;;;;;;;119468;1193;25776;-72
2023/06/28 03:44:42;;;;;;;;;6.75;6.25;;;;;;;;119754;1192;25076;-72
2023/06/28 03:47:10;;;;;;;;;10.50;8.00;;;;;;;;119911;1183;25585;-72
2023/06/28 03:49:40;;;;;;;;;8.00;6.00;;;;;;;;119863;1192;25091;-72
2023/06/28 03:52:08;;;;;;;;;7.00;5.33;;;;;;;;119865;1183;24902;-72
2023/06/28 03:54:36;;;;;;;;;6.00;5.00;;;;;;;;119882;1188;25163;-72
2023/06/28 03:57:05;;;;;;;;;6.00;5.00;;;;;;;;119861;1192;24732;-72
2023/06/28 03:59:33;;;;;;;;;8.00;6.00;;;;;;;;119847;1192;24880;-72
2023/06/28 04:02:01;;;;;;;;;7.50;5.75;;;;;;;;119863;1192;24707;-72
2023/06/28 04:04:30;;;;;;;;;10.50;9.00;;;;;;;;119871;1184;25684;-73
2023/06/28 04:07:00;;;;;;;;;4.00;4.00;;;;;;;;119879;1192;24761;-72
2023/06/28 04:09:29;;;;;;;;;8.50;8.00;;;;;;;;119883;1192;24912;-72
2023/06/28 04:11:57;;;;;;;;;3.00;3.00;;;;;;;;119869;1183;25599;-73
2023/06/28 04:14:25;;;;;;;;;5.00;5.00;;;;;;;;119889;1192;25327;-73
2023/06/28 04:16:53;;;;;;;;;7.00;7.00;;;;;;;;119505;1192;25127;-72
2023/06/28 04:19:22;;;;;;;;;8.00;7.00;;;;;;;;119877;1184;25698;-67
2023/06/28 04:21:50;;;;;;;;;5.00;5.00;;;;;;;;119747;1192;24886;-72
2023/06/28 04:24:19;;;;;;;;;5.50;5.50;;;;;;;;119683;1193;25112;-72
2023/06/28 04:26:47;;;;;;;;;6.50;6.50;;;;;;;;119702;1185;25086;-72
2023/06/28 04:29:15;;;;;;;;;6.00;6.00;;;;;;;;119493;1185;25544;-72
2023/06/28 04:31:43;;;;;;;;;7.75;5.75;;;;;;;;119857;1192;25646;-72
2023/06/28 04:34:12;;;;;;;;;7.67;5.00;;;;;;;;119470;1192;25641;-72
2023/06/28 04:36:40;;;;;;;;;3.50;3.50;;;;;;;;119865;1192;24980;-73
2023/06/28 04:39:08;;;;;;;;;6.00;6.00;;;;;;;;119862;1192;24958;-72
2023/06/28 04:41:37;;;;;;;;;6.00;5.00;;;;;;;;119846;1192;24965;-71
2023/06/28 04:44:09;;;;;;;;;5.00;5.00;;;;;;;;119692;1185;25266;-68
2023/06/28 04:46:38;;;;;;;;;8.00;6.00;;;;;;;;119826;1192;24742;-68
2023/06/28 04:49:06;;;;;;;;;8.00;7.50;;;;;;;;119760;1192;25063;-70
2023/06/28 04:51:35;;;;;;;;;8.00;8.00;;;;;;;;119866;1192;25106;-71
2023/06/28 04:54:03;;;;;;;;;5.33;5.33;;;;;;;;119898;1192;25039;-71
2023/06/28 04:56:32;;;;;;;;;8.50;7.75;;;;;;;;119868;1192;24935;-71
2023/06/28 04:59:01;;;;;;;;;5.00;5.00;;;;;;;;119901;1192;25398;-72
2023/06/28 05:01:29;;;;;;;;;8.67;6.33;;;;;;;;119861;1183;25639;-72
2023/06/28 05:03:57;;;;;;;;;8.00;8.00;;;;;;;;119857;1192;25044;-70
2023/06/28 05:06:28;;;;;;;;;7.67;6.00;;;;;;;;119774;1192;25514;-70
2023/06/28 05:08:57;;;;;;;;;6.00;6.00;;;;;;;;119743;1192;24926;-70
2023/06/28 05:11:25;;;;;;;;;10.33;7.67;;;;;;;;119696;1192;24980;-71
2023/06/28 05:13:53;;;;;;;;;11.00;9.00;;;;;;;;119896;1183;25610;-67
2023/06/28 05:16:21;;;;;;;;;5.00;5.00;;;;;;;;119858;1192;24899;-69
2023/06/28 05:18:50;;;;;;;;;8.67;6.00;;;;;;;;119898;1192;25399;-67
2023/06/28 05:21:18;;;;;;;;;10.00;9.50;;;;;;;;119745;1192;25149;-66
2023/06/28 05:23:46;;;;;;;;;5.00;5.00;;;;;;;;119853;1192;25530;-67
2023/06/28 05:26:14;;;;;;;;;6.50;6.00;;;;;;;;119844;1192;25320;-72
2023/06/28 05:28:43;;;;;;;;;7.33;7.33;;;;;;;;119688;1192;24851;-66
2023/06/28 05:31:12;;;;;;;;;7.00;6.50;;;;;;;;119833;1192;25652;-65
2023/06/28 05:33:41;;;;;;;;;8.00;8.00;;;;;;;;119869;1192;25654;-62
2023/06/28 05:36:09;;;;;;;;;8.00;7.00;;;;;;;;119886;1183;25328;-63
2023/06/28 05:38:37;;;;;;;;;11.33;8.33;;;;;;;;119861;1188;24959;-63
2023/06/28 05:41:16;;;;;;;;;9.00;9.00;;;;;;;;119876;1192;25404;-63
2023/06/28 05:43:45;;;;;;;;;6.50;6.25;;;;;;;;119532;1192;25078;-63
2023/06/28 05:46:14;;;;;;;;;10.75;7.00;;;;;;;;119793;1192;25160;-63
2023/06/28 05:48:43;;;;;;;;;9.00;9.00;;;;;;;;119757;1185;25117;-63
2023/06/28 05:51:14;;;;;;;;;7.50;7.50;;;;;;;;119877;1192;24922;-65
2023/06/28 05:53:42;;;;;;;;;8.00;6.00;;;;;;;;119722;1192;25911;-65
2023/06/28 05:56:10;;;;;;;;;6.00;5.33;;;;;;;;119885;1192;24936;-65
2023/06/28 05:58:39;;;;;;;;;9.67;8.33;;;;;;;;119925;1187;24719;-65
2023/06/28 06:01:07;;;;;;;;;6.50;5.75;;;;;;;;119737;1192;25042;-64
2023/06/28 06:03:36;;;;;;;;;8.00;8.00;;;;;;;;119892;1192;25174;-64
2023/06/28 06:06:04;;;;;;;;;7.00;7.00;;;;;;;;119885;1192;25084;-64
2023/06/28 06:08:33;;;;;;;;;7.50;7.00;;;;;;;;119726;1192;24928;-64
2023/06/28 06:11:03;;;;;;;;;5.00;5.00;;;;;;;;119880;1192;25458;-65
2023/06/28 06:13:31;;;;;;;;;9.00;7.50;;;;;;;;119873;1183;24746;-62
2023/06/28 06:16:00;;;;;;;;;8.00;7.67;;;;;;;;119639;1188;24885;-64
2023/06/28 06:18:28;;;;;;;;;6.25;6.25;;;;;;;;119875;1192;24796;-63
2023/06/28 06:20:56;;;;;;;;;8.33;5.33;;;;;;;;119902;1183;25017;-63
2023/06/28 06:23:24;;;;;;;;;8.00;7.33;;;;;;;;119877;1183;25270;-63
2023/06/28 06:25:53;;;;;;;;;8.33;7.67;;;;;;;;119892;1188;25796;-63
2023/06/28 06:28:21;;;;;;;;;9.00;8.00;;;;;;;;119685;1188;25683;-64
2023/06/28 06:30:49;;;;;;;;;5.00;5.00;;;;;;;;119825;1188;25339;-64
2023/06/28 06:33:18;;;;;;;;;3.67;3.67;;;;;;;;119882;1192;25555;-68
2023/06/28 06:35:48;;;;;;;;;7.00;7.00;;;;;;;;119886;1188;24955;-68
2023/06/28 06:38:16;;;;;;;;;7.33;6.00;;;;;;;;119621;1186;24974;-68
2023/06/28 06:40:45;;;;;;;;;6.67;5.33;;;;;;;;119941;1188;24809;-65
2023/06/28 06:43:13;;;;;;;;;6.00;6.00;;;;;;;;119809;1184;25760;-64
2023/06/28 06:45:42;;;;;;;;;7.00;6.67;;;;;;;;119603;1192;24962;-66
2023/06/28 06:48:10;;;;;;;;;8.00;6.33;;;;;;;;119864;1180;24998;-66
2023/06/28 06:50:39;;;;;;;;;8.50;6.75;;;;;;;;119905;1188;25047;-67
2023/06/28 06:53:08;;;;;;;;;6.00;6.00;;;;;;;;119877;1189;25040;-66
2023/06/28 06:55:36;;;;;;;;;9.00;7.50;;;;;;;;119878;1183;24872;-63
2023/06/28 06:58:05;;;;;;;;;6.33;6.00;;;;;;;;119795;1188;25487;-61
2023/06/28 07:00:33;;;;;;;;;8.33;7.33;;;;;;;;119913;1179;25348;-63
2023/06/28 07:03:01;;;;;;;;;6.00;6.00;;;;;;;;119902;1184;25076;-62
2023/06/28 07:05:30;;;;;;;;;9.00;8.00;;;;;;;;119885;1188;25609;-63
2023/06/28 07:07:58;;;;;;;;;8.50;7.00;;;;;;;;119896;1192;25440;-64
2023/06/28 07:10:27;;;;;;;;;5.67;5.67;;;;;;;;119884;1192;25035;-63
2023/06/28 07:12:55;;;;;;;;;6.00;6.00;;;;;;;;119910;1192;25417;-63
2023/06/28 07:15:25;;;;;;;;;8.33;6.00;;;;;;;;119861;1183;25218;-65
2023/06/28 07:17:53;;;;;;;;;8.00;7.50;;;;;;;;119874;1192;25260;-64
2023/06/28 07:20:22;;;;;;;;;4.67;3.00;;;;;;;;119905;1188;25658;-64
2023/06/28 07:22:50;;;;;;;;;9.00;7.00;;;;;;;;119872;1192;25685;-64
2023/06/28 07:25:19;;;;;;;;;9.00;7.67;;;;;;;;119601;1192;25421;-64
2023/06/28 07:27:47;;;;;;;;;6.33;6.00;;;;;;;;119855;1192;25634;-70
2023/06/28 07:30:16;;;;;;;;;6.67;5.00;;;;;;;;119880;1192;24687;-73
2023/06/28 07:32:44;;;;;;;;;7.33;5.67;;;;;;;;119866;1184;25520;-63
2023/06/28 07:35:12;;;;;;;;;7.00;7.00;;;;;;;;119897;1188;25317;-68
2023/06/28 07:37:41;;;;;;;;;8.00;6.00;;;;;;;;119877;1179;25140;-69
2023/06/28 07:40:10;;;;;;;;;9.00;7.00;;;;;;;;119876;1183;24893;-62
2023/06/28 07:42:40;;;;;;;;;6.00;6.00;;;;;;;;119884;1192;25433;-68
2023/06/28 07:45:09;;;;;;;;;7.00;6.00;;;;;;;;119897;1192;25007;-64
2023/06/28 07:47:37;;;;;;;;;7.67;7.33;;;;;;;;119605;1189;24859;-65
2023/06/28 07:50:09;;;;;;;;;5.00;5.00;;;;;;;;119908;1188;24947;-67
2023/06/28 07:52:37;;;;;;;;;6.00;6.00;;;;;;;;119874;1183;24997;-63
2023/06/28 07:55:07;;;;;;;;;9.00;7.33;;;;;;;;119959;1184;24965;-63
2023/06/28 07:57:36;;;;;;;;;7.67;7.67;;;;;;;;119800;1192;25494;-64
2023/06/28 08:00:05;;;;;;;;;9.25;6.00;;;;;;;;119888;1183;24826;-64
2023/06/28 08:02:33;;;;;;;;;7.00;7.00;;;;;;;;119877;1192;25439;-63
2023/06/28 08:05:02;;;;;;;;;8.50;8.50;;;;;;;;119908;1188;25180;-61
2023/06/28 08:07:30;;;;;;;;;5.67;5.67;;;;;;;;119607;1189;25869;-61
2023/06/28 08:09:59;;;;;;;;;8.67;8.67;;;;;;;;119798;1189;25190;-61
2023/06/28 08:12:27;;;;;;;;;8.33;8.00;;;;;;;;119871;1183;24890;-62
2023/06/28 08:14:56;;;;;;;;;12.00;10.00;;;;;;;;119885;1184;25544;-62
2023/06/28 08:17:24;;;;;;;;;8.50;8.50;;;;;;;;119884;1192;25326;-63
2023/06/28 08:19:56;;;;;;;;;12.50;10.00;;;;;;;;119742;1186;25103;-60
2023/06/28 08:22:25;;;;;;;;;12.00;12.00;;;;;;;;119582;1186;25254;-60
2023/06/28 08:24:53;;;;;;;;;14.00;12.67;;;;;;;;119870;1192;24977;-60
2023/06/28 08:27:21;;;;;;;;;13.25;11.50;;;;;;;;119913;1183;24738;-60
2023/06/28 08:29:53;;;;;;;;;9.33;9.33;;;;;;;;119877;1184;25454;-60
2023/06/28 08:32:21;;;;;;;;;10.33;10.00;;;;;;;;119884;1192;25419;-61
2023/06/28 08:34:49;;;;;;;;;14.00;13.00;;;;;;;;119879;1192;25848;-60
2023/06/28 08:37:18;;;;;;;;;9.33;7.67;;;;;;;;119740;1185;25307;-62
2023/06/28 08:39:46;;;;;;;;;12.25;12.00;;;;;;;;119881;1192;25531;-62
2023/06/28 08:42:18;;;;;;;;;13.00;12.33;;;;;;;;119856;1189;24805;-63
2023/06/28 08:44:50;;;;;;;;;13.00;10.00;;;;;;;;119718;1192;24987;-62
2023/06/28 08:47:18;;;;;;;;;15.00;13.67;;;;;;;;119715;1192;24746;-62
2023/06/28 08:49:47;;;;;;;;;16.00;13.67;;;;;;;;119860;1183;24945;-62
2023/06/28 08:52:16;;;;;;;;;11.50;11.50;;;;;;;;119507;1185;25145;-65
2023/06/28 08:54:44;;;;;;;;;10.25;9.75;;;;;;;;119849;1192;25434;-64
2023/06/28 08:57:15;;;;;;;;;15.50;11.00;;;;;;;;119884;1192;25194;-64
2023/06/28 08:59:44;;;;;;;;;10.00;10.00;;;;;;;;119713;1192;25715;-64
2023/06/28 09:02:17;;;;;;;;;11.00;9.75;;;;;;;;119886;1192;25213;-63
2023/06/28 09:04:48;;;;;;;;;14.50;9.50;;;;;;;;119908;1183;25393;-62
2023/06/28 09:07:17;;;;;;;;;12.00;9.50;;;;;;;;119902;1192;24827;-64
2023/06/28 09:09:48;;;;;;;;;11.33;9.00;;;;;;;;119502;1185;25211;-62
2023/06/28 09:12:18;;;;;;;;;9.67;9.67;;;;;;;;119622;1185;25667;-62
2023/06/28 09:14:46;;;;;;;;;9.50;7.75;;;;;;;;119526;1192;25785;-62
2023/06/28 09:17:15;;;;;;;;;10.25;9.50;;;;;;;;119890;1183;25513;-61
2023/06/28 09:19:43;;;;;;;;;13.25;10.50;;;;;;;;119930;1188;25998;-61
2023/06/28 09:22:11;;;;;;;;;14.50;10.00;;;;;;;;119907;1183;25101;-62
2023/06/28 09:24:40;;;;;;;;;9.67;9.67;;;;;;;;119855;1188;25290;-62
2023/06/28 09:27:08;;;;;;;;;9.25;7.75;;;;;;;;119892;1192;25605;-62
2023/06/28 09:29:37;;;;;;;;;10.75;8.25;;;;;;;;119895;1183;25541;-63
2023/06/28 09:32:06;;;;;;;;;11.25;11.25;;;;;;;;119795;1192;25077;-63
2023/06/28 09:34:36;;;;;;;;;12.00;9.00;;;;;;;;119594;1192;25705;-62
2023/06/28 09:37:06;;;;;;;;;10.67;8.67;;;;;;;;119633;1186;25396;-62
2023/06/28 09:39:36;;;;;;;;;11.00;9.33;;;;;;;;119918;1188;25634;-61
2023/06/28 09:42:06;;;;;;;;;8.50;7.50;;;;;;;;119864;1192;25279;-61
2023/06/28 09:44:34;;;;;;;;;10.50;8.50;;;;;;;;119507;1192;25270;-62
2023/06/28 09:47:05;;;;;;;;;6.00;4.67;;;;;;;;119868;1192;25234;-62
2023/06/28 09:49:34;;;;;;;;;7.33;7.33;;;;;;;;119872;1192;25734;-62
2023/06/28 09:52:07;;;;;;;;;6.00;6.00;;;;;;;;119863;1192;25132;-61
2023/06/28 09:54:44;;;;;;;;;14.00;10.50;;;;;;;;119721;1192;24994;-62
2023/06/28 09:57:13;;;;;;;;;10.00;8.00;;;;;;;;119862;1192;24825;-63
2023/06/28 09:59:43;;;;;;;;;9.25;8.25;;;;;;;;119869;1192;24844;-62
2023/06/28 10:02:12;;;;;;;;;8.67;6.33;;;;;;;;119528;1188;25365;-71
2023/06/28 10:04:41;;;;;;;;;9.00;8.00;;;;;;;;119703;1192;25229;-63
2023/06/28 10:07:11;;;;;;;;;10.50;9.00;;;;;;;;119863;1192;25286;-63
2023/06/28 10:09:40;;;;;;;;;8.00;8.00;;;;;;;;119460;1192;25366;-67
2023/06/28 10:12:18;;;;;;;;;7.33;5.67;;;;;;;;119833;1192;25648;-68
2023/06/28 10:15:02;;;;;;;;;9.00;7.50;;;;;;;;119890;1184;24862;-71
2023/06/28 10:17:32;;;;;;;;;6.00;6.00;;;;;;;;119876;1183;25394;-68
2023/06/28 10:20:02;;;;;;;;;7.00;7.00;;;;;;;;119481;1185;25605;-70
2023/06/28 10:22:31;;;;;;;;;8.67;8.00;;;;;;;;119710;1185;25256;-67
2023/06/28 10:25:02;;;;;;;;;8.00;7.00;;;;;;;;119719;1184;25699;-69
2023/06/28 10:27:33;;;;;;;;;13.33;10.00;;;;;;;;119504;1192;25367;-69
2023/06/28 10:30:03;;;;;;;;;8.50;7.00;;;;;;;;119911;1192;24802;-68
2023/06/28 10:32:31;;;;;;;;;7.75;7.00;;;;;;;;119462;1192;24853;-65
2023/06/28 10:35:01;;;;;;;;;11.67;7.33;;;;;;;;119680;1185;24936;-67
2023/06/28 10:37:30;;;;;;;;;6.00;5.00;;;;;;;;119858;1183;25644;-66
2023/06/28 10:39:58;;;;;;;;;8.50;7.00;;;;;;;;119665;1189;25621;-67
2023/06/28 10:42:37;;;;;;;;;7.00;7.00;;;;;;;;119465;1192;25627;-66
2023/06/28 10:45:09;;;;;;;;;10.67;8.67;;;;;;;;119867;1188;24881;-65
2023/06/28 10:47:51;;;;;;;;;9.00;9.00;;;;;;;;119882;1183;25369;-67
2023/06/28 10:50:21;;;;;;;;;8.00;8.00;;;;;;;;119565;1188;25728;-74
2023/06/28 10:52:54;;;;;;;;;6.00;6.00;;;;;;;;119518;1192;25408;-71
2023/06/28 10:55:30;;;;;;;;;9.00;7.67;;;;;;;;119485;1185;25453;-68
2023/06/28 10:58:11;;;;;;;;;11.00;9.00;;;;;;;;119851;1192;25073;-72
2023/06/28 11:00:44;;;;;;;;;8.33;8.00;;;;;;;;119482;1192;25189;-70
2023/06/28 11:03:15;;;;;;;;;5.00;2.00;;;;;;;;119858;1184;24956;-71
2023/06/28 11:05:44;;;;;;;;;8.67;7.67;;;;;;;;119870;1179;25171;-72
2023/06/28 11:08:17;;;;;;;;;11.25;8.50;;;;;;;;119887;1183;25502;-72
2023/06/28 11:10:53;;;;;;;;;7.75;6.50;;;;;;;;119795;1192;25581;-70
2023/06/28 11:13:42;;;;;;;;;8.00;8.00;;;;;;;;119879;1184;25396;-70
2023/06/28 11:16:13;;;;;;;;;9.50;8.00;;;;;;;;119873;1192;25236;-71
2023/06/28 11:18:42;;;;;;;;;9.00;8.33;;;;;;;;119601;1192;25469;-72
2023/06/28 11:21:15;;;;;;;;;8.50;7.50;;;;;;;;119801;1188;25565;-72
2023/06/28 11:23:45;;;;;;;;;6.67;6.67;;;;;;;;119892;1188;25208;-75
2023/06/28 11:26:16;;;;;;;;;9.50;9.00;;;;;;;;119691;1188;25577;-73
2023/06/28 11:28:54;;;;;;;;;11.33;7.67;;;;;;;;119900;1192;25058;-71
2023/06/28 11:31:24;;;;;;;;;8.00;8.00;;;;;;;;119868;1192;25492;-73
2023/06/28 11:33:54;;;;;;;;;10.50;9.00;;;;;;;;119718;1185;24780;-71
2023/06/28 11:36:24;;;;;;;;;9.67;9.67;;;;;;;;119809;1188;24931;-76
2023/06/28 11:38:53;;;;;;;;;9.00;9.00;;;;;;;;119612;1192;25368;-74
2023/06/28 11:41:21;;;;;;;;;8.00;8.00;;;;;;;;119906;1192;25294;-72
2023/06/28 11:43:49;;;;;;;;;8.50;8.50;;;;;;;;119876;1188;24925;-72
2023/06/28 11:46:20;;;;;;;;;8.50;8.50;;;;;;;;119918;1184;25169;-74
2023/06/28 11:48:50;;;;;;;;;10.50;8.00;;;;;;;;119870;1192;24838;-72
2023/06/28 11:51:22;;;;;;;;;10.00;9.00;;;;;;;;119878;1183;25113;-72
2023/06/28 11:53:51;;;;;;;;;7.00;5.67;;;;;;;;119675;1189;25550;-72
2023/06/28 11:56:19;;;;;;;;;15.00;7.50;;;;;;;;119611;1186;25484;-76
2023/06/28 11:58:47;;;;;;;;;8.00;6.67;;;;;;;;119801;1192;25655;-67
2023/06/28 12:01:21;;;;;;;;;10.00;8.00;;;;;;;;119883;1188;26026;-72
2023/06/28 12:03:49;;;;;;;;;10.00;7.50;;;;;;;;119863;1189;25384;-71
2023/06/28 12:06:18;;;;;;;;;7.33;7.33;;;;;;;;119864;1189;24982;-69
2023/06/28 12:08:46;;;;;;;;;8.00;6.75;;;;;;;;119602;1185;27005;-71
2023/06/28 12:11:16;;;;;;;;;8.33;8.00;;;;;;;;119895;1192;25145;-72
2023/06/28 12:13:45;;;;;;;;;6.00;6.00;;;;;;;;119740;1189;25316;-71
2023/06/28 12:16:17;;;;;;;;;5.50;5.00;;;;;;;;119931;1188;25233;-67
2023/06/28 12:18:57;;;;;;;;;8.00;5.00;;;;;;;;119669;1193;25394;-67
2023/06/28 12:21:27;;;;;;;;;9.50;8.00;;;;;;;;119819;1192;25504;-69
2023/06/28 12:24:16;;;;;;;;;7.00;7.00;;;;;;;;119721;1185;25685;-76
2023/06/28 12:26:48;;;;;;;;;6.00;4.50;;;;;;;;119880;1192;25147;-72
2023/06/28 12:29:21;;;;;;;;;6.50;6.00;;;;;;;;119712;1192;25671;-73
2023/06/28 12:31:52;;;;;;;;;6.00;6.00;;;;;;;;119517;1186;25512;-72
2023/06/28 12:34:24;;;;;;;;;8.00;6.00;;;;;;;;119790;1189;25018;-75
2023/06/28 12:36:58;;;;;;;;;2.00;0.50;;;;;;;;119883;1192;25571;-72
2023/06/28 12:39:28;;;;;;;;;3.33;3.33;;;;;;;;119864;1183;24918;-72
2023/06/28 12:42:05;;;;;;;;;7.33;5.67;;;;;;;;119506;1185;25106;-71
2023/06/28 12:44:55;;;;;;;;;9.00;5.00;;;;;;;;119865;1192;25446;-71
2023/06/28 12:47:28;;;;;;;;;5.00;5.00;;;;;;;;119877;1184;24958;-64
2023/06/28 12:49:58;;;;;;;;;8.67;5.00;;;;;;;;119864;1183;24719;-65
2023/06/28 12:52:28;;;;;;;;;7.00;6.50;;;;;;;;119779;1183;25320;-65
2023/06/28 12:54:57;;;;;;;;;10.00;5.67;;;;;;;;119512;1189;25465;-69
2023/06/28 12:57:28;;;;;;;;;6.00;6.00;;;;;;;;119638;1185;25030;-70
2023/06/28 12:59:57;;;;;;;;;6.00;6.00;;;;;;;;119888;1183;25391;-72
2023/06/28 13:02:25;;;;;;;;;7.33;6.33;;;;;;;;119654;1185;24755;-67
2023/06/28 13:04:54;;;;;;;;;5.00;5.00;;;;;;;;119874;1192;24947;-70
2023/06/28 13:07:22;;;;;;;;;8.00;8.00;;;;;;;;119857;1192;25059;-68
2023/06/28 13:09:50;;;;;;;;;6.75;4.75;;;;;;;;119923;1179;25617;-71
2023/06/28 13:12:19;;;;;;;;;5.50;5.50;;;;;;;;119587;1189;24877;-71
2023/06/28 13:14:47;;;;;;;;;7.00;5.00;;;;;;;;119865;1188;25643;-72
2023/06/28 13:17:15;;;;;;;;;8.00;4.33;;;;;;;;119872;1192;25838;-70
2023/06/28 13:19:44;;;;;;;;;8.00;6.00;;;;;;;;119880;1192;25218;-70
2023/06/28 13:22:12;;;;;;;;;7.33;6.67;;;;;;;;119894;1184;24859;-69
2023/06/28 13:24:40;;;;;;;;;6.75;5.00;;;;;;;;119895;1188;25015;-70
2023/06/28 13:27:09;;;;;;;;;7.00;5.25;;;;;;;;119878;1188;25620;-71
2023/06/28 13:29:37;;;;;;;;;8.67;5.00;;;;;;;;119911;1183;25846;-73
2023/06/28 13:32:06;;;;;;;;;6.00;5.00;;;;;;;;119848;1192;25496;-72
2023/06/28 13:34:36;;;;;;;;;6.00;5.33;;;;;;;;119558;1190;24921;-69
2023/06/28 13:37:05;;;;;;;;;7.33;5.33;;;;;;;;119922;1179;25026;-75
2023/06/28 13:39:53;;;;;;;;;7.00;7.00;;;;;;;;119893;1185;25200;-74
2023/06/28 13:42:22;;;;;;;;;19.00;17.00;;;;;;;;119894;1188;25428;-68
2023/06/28 13:44:50;;;;;;;;;20.67;19.33;;;;;;;;119912;1187;25535;-68
2023/06/28 13:47:19;;;;;;;;;23.25;17.00;;;;;;;;119888;1192;24927;-75
2023/06/28 13:49:48;;;;;;;;;17.67;13.67;;;;;;;;119818;1185;24873;-69
2023/06/28 13:52:17;;;;;;;;;13.00;11.00;;;;;;;;119770;1192;25712;-68
2023/06/28 13:54:45;;;;;;;;;9.75;9.75;;;;;;;;119768;1188;25478;-79
2023/06/28 13:57:14;;;;;;;;;8.00;8.00;;;;;;;;119852;1192;24780;-79
2023/06/28 13:59:42;;;;;;;;;10.67;10.33;;;;;;;;119522;1185;24740;-71
2023/06/28 14:02:12;;;;;;;;;11.67;11.00;;;;;;;;119472;1189;25248;-76
2023/06/28 14:04:41;;;;;;;;;11.00;8.50;;;;;;;;119835;1192;25576;-74
2023/06/28 14:07:09;;;;;;;;;11.67;9.67;;;;;;;;119899;1183;24850;-77
2023/06/28 14:09:38;;;;;;;;;9.00;9.00;;;;;;;;119880;1192;24749;-75
2023/06/28 14:12:07;;;;;;;;;12.50;10.00;;;;;;;;119878;1184;25124;-72
2023/06/28 14:14:35;;;;;;;;;8.50;7.25;;;;;;;;119708;1192;24981;-73
2023/06/28 14:17:03;;;;;;;;;12.50;11.00;;;;;;;;119738;1185;25237;-71
2023/06/28 14:19:35;;;;;;;;;14.00;10.00;;;;;;;;119677;1193;25135;-73
2023/06/28 14:22:03;;;;;;;;;9.00;9.00;;;;;;;;119705;1193;25171;-73
2023/06/28 14:24:32;;;;;;;;;13.33;10.00;;;;;;;;119887;1190;25272;-77
2023/06/28 14:27:00;;;;;;;;;11.00;11.00;;;;;;;;119700;1192;24840;-77
2023/06/28 14:29:29;;;;;;;;;8.50;7.50;;;;;;;;119694;1185;25327;-76
2023/06/28 14:31:58;;;;;;;;;9.67;8.67;;;;;;;;119681;1192;25677;-78
2023/06/28 14:34:27;;;;;;;;;6.50;6.50;;;;;;;;119534;1192;24759;-77
2023/06/28 14:36:55;;;;;;;;;7.00;7.00;;;;;;;;119825;1192;25412;-79
2023/06/28 14:39:23;;;;;;;;;6.00;6.00;;;;;;;;119761;1192;26031;-77